Weather at Kingdom Field

Public forecast

Using degrees Fahrenheit for public forecast. Weather courtesy of forecast.io.

Closest aviation weather report (METAR) to Kingdom Field

Closest report is Oswego County Airport, 4.2 nm (7.7 km) SE. Retrieved 2020/12/04 22:01 UTC (58 minutes ago):

KFZY 042201Z AUTO 00000KT 7SM -RA OVC028 04/03 A2987 RMK AO2 P0001 T00390028

Closest aviation forecast (TAF) to Kingdom Field

Closest forecast is Syracuse Hancock International Airport, 23.1 nm (42.8 km) SE. Retrieved 2020/12/04 18:42 UTC (4 hours ago):

TAF KSYR 041739Z 0418/0518 22011G18KT P6SM SCT040 OVC060 FM042100 22009KT 5SM -RA BR OVC028 FM042200 23008KT 4SM -RA BR OVC017 TEMPO 0422/0501 2SM -RA BR BKN008 OVC015 FM050200 26005KT P6SM BKN024 FM050800 29005KT P6SM BKN016 FM051400 32010KT P6SM OVC012